Time;durP1;ratioP1;P1;durP2;ratioP2;P2;SDS_P1;SDS_P2;PMS_P1;PMS_P2;Temp;Humidity;BMP_temperature;BMP_pressure;BME280_temperature;BME280_humidity;BME280_pressure;Samples;Min_cycle;Max_cycle;Signal;HPM_P1;HPM_P2
2023/04/28 00:00:30;;;;;;;4.38;2.60;;;10.00;75.10;;;;;;4949605;28;20405;-72
2023/04/28 00:02:56;;;;;;;3.35;2.08;;;10.00;75.10;;;;;;4948009;28;20045;-69
2023/04/28 00:05:23;;;;;;;6.88;2.75;;;9.90;75.10;;;;;;4945808;28;20038;-69
2023/04/28 00:07:50;;;;;;;5.50;2.40;;;10.00;75.30;;;;;;4929397;28;20038;-69
2023/04/28 00:10:16;;;;;;;4.90;2.42;;;9.90;75.50;;;;;;4956848;28;21941;-69
2023/04/28 00:12:42;;;;;;;5.30;2.47;;;9.90;75.50;;;;;;4938094;28;20050;-68
2023/04/28 00:15:09;;;;;;;3.72;2.28;;;9.90;75.50;;;;;;4944939;28;20058;-71
2023/04/28 00:17:35;;;;;;;5.25;2.42;;;9.90;75.60;;;;;;4947794;28;20684;-69
2023/04/28 00:20:02;;;;;;;4.80;2.00;;;9.90;75.80;;;;;;4949178;28;20042;-72
2023/04/28 00:22:28;;;;;;;4.47;2.13;;;9.80;75.80;;;;;;4944746;28;20030;-70
2023/04/28 00:24:55;;;;;;;8.20;2.55;;;9.90;76.00;;;;;;4949824;28;20049;-69
2023/04/28 00:27:21;;;;;;;3.85;2.00;;;9.80;75.90;;;;;;4945496;28;20096;-71
2023/04/28 00:29:47;;;;;;;4.53;1.23;;;9.80;76.00;;;;;;4938388;28;20678;-68
2023/04/28 00:32:14;;;;;;;3.90;1.83;;;9.70;76.10;;;;;;4904282;28;20051;-69
2023/04/28 00:34:40;;;;;;;5.45;2.08;;;9.70;76.20;;;;;;4928516;28;20894;-70
2023/04/28 00:37:06;;;;;;;3.45;2.00;;;9.70;76.20;;;;;;4941333;28;20658;-68
2023/04/28 00:39:33;;;;;;;5.93;2.38;;;9.70;76.30;;;;;;4933421;28;20050;-71
2023/04/28 00:42:01;;;;;;;4.88;1.80;;;9.70;76.30;;;;;;4931845;28;20065;-71
2023/04/28 00:44:27;;;;;;;5.60;2.20;;;9.70;76.50;;;;;;4951875;28;20035;-69
2023/04/28 00:46:53;;;;;;;3.47;2.05;;;9.60;76.60;;;;;;4926960;28;20046;-69
2023/04/28 00:49:20;;;;;;;5.10;2.08;;;9.60;76.70;;;;;;4945941;28;20065;-70
2023/04/28 00:51:46;;;;;;;4.85;2.45;;;9.60;76.80;;;;;;4954314;28;20045;-69
2023/04/28 00:54:13;;;;;;;4.10;2.15;;;9.60;77.00;;;;;;4952080;28;20274;-69
2023/04/28 00:56:40;;;;;;;6.85;2.70;;;9.60;77.10;;;;;;4932622;28;20042;-68
2023/04/28 00:59:06;;;;;;;5.90;2.53;;;9.60;77.20;;;;;;4953367;28;20594;-67
2023/04/28 01:01:42;;;;;;;3.47;1.98;;;9.60;77.30;;;;;;4950361;28;20045;-69
2023/04/28 01:04:09;;;;;;;4.40;1.52;;;9.60;77.30;;;;;;4943882;28;20335;-68
2023/04/28 01:06:37;;;;;;;5.50;1.80;;;9.60;77.30;;;;;;4951194;28;20053;-67
2023/04/28 01:09:06;;;;;;;6.07;2.38;;;9.60;77.40;;;;;;4933094;28;20087;-67
2023/04/28 01:11:32;;;;;;;3.75;1.45;;;9.60;77.50;;;;;;4939857;28;20049;-67
2023/04/28 01:13:59;;;;;;;6.13;2.25;;;9.60;77.50;;;;;;4952328;28;20346;-68
2023/04/28 01:16:27;;;;;;;3.78;2.28;;;9.60;77.70;;;;;;4934474;28;20437;-69
2023/04/28 01:18:59;;;;;;;4.95;2.10;;;9.60;77.90;;;;;;4956463;28;21634;-68
2023/04/28 01:21:29;;;;;;;3.15;1.63;;;9.60;78.40;;;;;;4934980;28;20512;-68
2023/04/28 01:23:56;;;;;;;6.57;2.22;;;9.60;79.00;;;;;;4939863;28;20042;-66
2023/04/28 01:26:23;;;;;;;4.47;2.15;;;9.50;80.00;;;;;;4934752;28;20235;-66
2023/04/28 01:28:50;;;;;;;2.83;1.60;;;9.50;80.40;;;;;;4968072;28;21597;-67
2023/04/28 01:31:16;;;;;;;6.32;1.80;;;9.50;81.00;;;;;;4942720;28;20030;-66
2023/04/28 01:33:43;;;;;;;3.03;1.77;;;9.40;82.10;;;;;;4949774;28;20607;-66
2023/04/28 01:36:09;;;;;;;4.15;1.67;;;9.40;82.40;;;;;;4933251;28;20042;-68
2023/04/28 01:38:36;;;;;;;3.92;1.90;;;9.30;82.70;;;;;;4937200;28;20477;-67
2023/04/28 01:41:02;;;;;;;3.55;2.03;;;9.30;83.60;;;;;;4950896;28;20033;-66
2023/04/28 01:43:29;;;;;;;4.38;2.40;;;9.20;84.10;;;;;;4970706;28;20420;-67
2023/04/28 01:45:55;;;;;;;5.57;2.88;;;9.20;84.80;;;;;;4951044;28;20382;-67
2023/04/28 01:48:21;;;;;;;6.88;2.90;;;9.20;85.40;;;;;;4951055;28;20945;-66
2023/04/28 01:50:48;;;;;;;7.10;3.03;;;9.20;85.60;;;;;;4944597;28;20037;-67
2023/04/28 01:53:14;;;;;;;3.05;1.73;;;9.10;85.90;;;;;;4947384;28;20637;-67
2023/04/28 01:55:40;;;;;;;2.97;1.85;;;9.10;86.20;;;;;;4935312;28;20030;-68
2023/04/28 01:58:07;;;;;;;5.35;3.15;;;9.10;86.50;;;;;;4966442;28;20042;-67
2023/04/28 02:00:34;;;;;;;4.88;2.70;;;9.10;87.00;;;;;;4934845;28;20286;-67
2023/04/28 02:03:02;;;;;;;4.35;2.28;;;9.00;87.20;;;;;;4954051;28;20057;-67
2023/04/28 02:05:28;;;;;;;5.75;2.35;;;9.00;87.20;;;;;;4959285;28;20030;-68
2023/04/28 02:07:55;;;;;;;7.75;2.80;;;9.00;87.50;;;;;;4949166;28;20047;-67
2023/04/28 02:10:21;;;;;;;5.20;2.45;;;9.00;87.70;;;;;;4942866;28;20499;-68
2023/04/28 02:12:47;;;;;;;4.18;2.42;;;9.00;87.90;;;;;;4962250;28;20049;-67
2023/04/28 02:15:14;;;;;;;5.00;2.28;;;9.00;88.30;;;;;;4947944;28;20042;-67
2023/04/28 02:17:40;;;;;;;4.75;2.03;;;9.00;88.30;;;;;;4949996;28;20038;-68
2023/04/28 02:20:07;;;;;;;4.68;1.70;;;9.00;88.50;;;;;;4945033;28;20035;-67
2023/04/28 02:22:33;;;;;;;4.32;2.20;;;9.00;88.50;;;;;;4934726;28;20505;-67
2023/04/28 02:25:00;;;;;;;5.45;2.28;;;9.00;88.40;;;;;;4958873;28;20042;-67
2023/04/28 02:27:26;;;;;;;4.90;2.63;;;9.00;88.30;;;;;;4949575;28;20065;-69
2023/04/28 02:29:54;;;;;;;5.95;2.55;;;9.00;88.30;;;;;;4943403;28;20035;-67
2023/04/28 02:32:21;;;;;;;6.18;2.47;;;9.00;88.60;;;;;;4924611;28;21029;-67
2023/04/28 02:34:54;;;;;;;5.80;2.20;;;9.00;88.60;;;;;;4945781;28;20046;-68
2023/04/28 02:37:22;;;;;;;5.78;3.85;;;9.00;88.90;;;;;;4930918;28;20049;-69
2023/04/28 02:39:50;;;;;;;3.70;2.45;;;9.00;88.90;;;;;;4940696;28;20054;-67
2023/04/28 02:42:16;;;;;;;4.78;2.70;;;9.00;88.80;;;;;;4948137;28;20602;-67
2023/04/28 02:44:43;;;;;;;4.53;1.70;;;9.00;89.10;;;;;;4954051;28;20450;-68
2023/04/28 02:47:09;;;;;;;4.65;1.70;;;9.00;89.30;;;;;;4952158;28;20362;-68
2023/04/28 02:49:36;;;;;;;2.80;1.63;;;9.00;89.40;;;;;;4942834;28;20038;-67
2023/04/28 02:52:02;;;;;;;4.45;2.33;;;9.10;90.00;;;;;;4935726;28;20053;-68
2023/04/28 02:54:29;;;;;;;5.50;2.63;;;9.00;89.30;;;;;;4946688;28;20037;-67
2023/04/28 02:56:57;;;;;;;3.35;2.00;;;9.00;89.40;;;;;;4946452;28;20041;-68
2023/04/28 02:59:24;;;;;;;3.17;2.08;;;9.00;89.40;;;;;;4927040;28;20045;-68
2023/04/28 03:01:50;;;;;;;4.10;1.65;;;9.00;89.60;;;;;;4955089;28;20474;-66
2023/04/28 03:04:17;;;;;;;5.10;1.60;;;9.00;89.70;;;;;;4957281;28;21053;-67
2023/04/28 03:06:43;;;;;;;6.47;2.15;;;9.10;89.90;;;;;;4953202;28;20046;-68
2023/04/28 03:09:10;;;;;;;6.35;2.97;;;9.10;89.90;;;;;;4948694;28;20058;-67
2023/04/28 03:11:36;;;;;;;3.28;1.70;;;9.10;90.00;;;;;;4936643;28;20041;-68
2023/04/28 03:14:03;;;;;;;3.38;1.58;;;9.10;90.00;;;;;;4915160;28;20600;-69
2023/04/28 03:16:29;;;;;;;3.22;1.80;;;9.10;90.00;;;;;;4917509;28;20370;-69
2023/04/28 03:18:56;;;;;;;8.50;3.50;;;9.10;90.00;;;;;;4949138;28;20349;-67
2023/04/28 03:21:22;;;;;;;4.93;2.95;;;9.10;90.00;;;;;;4910405;28;20397;-67
2023/04/28 03:23:49;;;;;;;6.50;3.22;;;9.10;90.10;;;;;;4970387;28;20053;-68
2023/04/28 03:26:15;;;;;;;3.97;1.48;;;9.10;90.10;;;;;;4955384;28;20034;-68
2023/04/28 03:28:43;;;;;;;3.92;1.88;;;9.10;90.20;;;;;;4953655;28;20045;-67
2023/04/28 03:31:09;;;;;;;3.42;2.38;;;9.10;90.20;;;;;;4939888;28;20049;-69
2023/04/28 03:33:35;;;;;;;7.05;2.45;;;9.10;90.30;;;;;;4943733;28;20471;-67
2023/04/28 03:36:02;;;;;;;4.57;2.40;;;9.10;90.30;;;;;;4967111;28;20053;-70
2023/04/28 03:38:29;;;;;;;5.22;2.28;;;9.10;90.40;;;;;;4931660;28;20035;-67
2023/04/28 03:40:55;;;;;;;4.28;3.22;;;9.10;90.50;;;;;;4943498;28;20046;-68
2023/04/28 03:43:40;;;;;;;4.68;2.50;;;9.10;90.50;;;;;;4951835;28;20023;-67
2023/04/28 03:46:15;;;;;;;6.82;3.30;;;9.10;90.60;;;;;;4938110;28;20054;-68
2023/04/28 03:48:42;;;;;;;3.55;2.45;;;9.10;90.70;;;;;;4956681;28;20711;-67
2023/04/28 03:51:08;;;;;;;4.53;2.38;;;9.10;90.70;;;;;;4942604;28;20026;-68
2023/04/28 03:53:34;;;;;;;5.38;1.88;;;9.10;90.80;;;;;;4923007;28;20932;-69
2023/04/28 03:56:01;;;;;;;4.88;2.88;;;9.10;90.90;;;;;;4944196;28;20064;-67
2023/04/28 03:58:27;;;;;;;5.18;2.05;;;9.10;91.00;;;;;;4912645;28;20046;-67
2023/04/28 04:00:54;;;;;;;3.53;1.73;;;9.10;91.00;;;;;;4927316;28;20047;-67
2023/04/28 04:03:21;;;;;;;7.60;3.53;;;9.10;91.10;;;;;;4944241;28;20038;-66
2023/04/28 04:05:48;;;;;;;5.25;2.30;;;9.20;91.20;;;;;;4956832;28;20045;-68
2023/04/28 04:08:15;;;;;;;4.63;3.00;;;9.20;91.30;;;;;;4939690;28;20050;-68
2023/04/28 04:10:41;;;;;;;2.42;1.40;;;9.20;91.50;;;;;;4930060;28;20397;-67
2023/04/28 04:13:07;;;;;;;4.13;1.85;;;9.10;91.50;;;;;;4961265;28;20046;-67
2023/04/28 04:15:34;;;;;;;5.00;2.85;;;9.10;91.60;;;;;;4917338;28;20740;-66
2023/04/28 04:18:00;;;;;;;4.45;2.47;;;9.10;91.70;;;;;;4945669;28;20049;-67
2023/04/28 04:20:35;;;;;;;4.95;2.90;;;9.10;92.10;;;;;;4958964;28;20041;-66
2023/04/28 04:23:02;;;;;;;4.03;2.33;;;9.10;91.90;;;;;;4944575;28;20038;-68
2023/04/28 04:25:29;;;;;;;4.47;2.00;;;9.10;92.00;;;;;;4943521;28;20135;-68
2023/04/28 04:27:56;;;;;;;3.03;2.03;;;9.10;92.10;;;;;;4957209;28;20041;-66
2023/04/28 04:30:22;;;;;;;5.05;2.60;;;9.10;92.30;;;;;;4947321;28;20101;-66
2023/04/28 04:32:48;;;;;;;6.88;2.33;;;9.10;92.40;;;;;;4948280;28;20783;-68
2023/04/28 04:35:15;;;;;;;7.57;3.55;;;9.10;92.60;;;;;;4951372;28;20428;-67
2023/04/28 04:37:41;;;;;;;5.13;2.53;;;9.10;92.80;;;;;;4934792;28;20488;-66
2023/04/28 04:40:08;;;;;;;5.60;3.17;;;9.20;92.90;;;;;;4929229;28;20030;-68
2023/04/28 04:42:41;;;;;;;4.30;2.75;;;9.10;93.00;;;;;;4949308;28;20022;-67
2023/04/28 04:45:11;;;;;;;4.85;3.05;;;9.20;93.20;;;;;;4944392;28;20053;-69
2023/04/28 04:47:38;;;;;;;3.92;2.53;;;9.10;93.20;;;;;;4958891;28;20031;-67
2023/04/28 04:50:05;;;;;;;6.93;3.80;;;9.20;93.40;;;;;;4950235;28;20049;-68
2023/04/28 04:52:32;;;;;;;4.43;2.55;;;9.10;93.60;;;;;;4929016;28;20619;-68
2023/04/28 04:54:59;;;;;;;4.43;2.90;;;9.20;93.70;;;;;;4933054;28;20370;-70
2023/04/28 04:57:25;;;;;;;3.85;2.75;;;9.20;93.80;;;;;;4933839;28;20034;-67
2023/04/28 05:00:20;;;;;;;8.07;3.60;;;9.20;93.90;;;;;;4951079;28;20220;-67
2023/04/28 05:02:47;;;;;;;4.53;3.47;;;9.20;94.20;;;;;;4952978;28;20621;-67
2023/04/28 05:05:16;;;;;;;6.40;3.70;;;9.20;94.30;;;;;;4941463;28;20699;-68
2023/04/28 05:07:42;;;;;;;4.47;3.22;;;9.20;94.70;;;;;;4942699;28;20576;-68
2023/04/28 05:10:10;;;;;;;7.57;3.13;;;9.20;94.80;;;;;;4948398;28;20409;-67
2023/04/28 05:12:37;;;;;;;4.00;3.03;;;9.20;95.10;;;;;;4943779;28;20039;-68
2023/04/28 05:15:06;;;;;;;6.45;4.10;;;9.20;95.30;;;;;;4933314;28;20026;-67
2023/04/28 05:17:36;;;;;;;4.38;3.67;;;9.30;95.50;;;;;;4948823;28;20038;-67
2023/04/28 05:20:02;;;;;;;5.63;3.78;;;9.30;95.60;;;;;;4947333;28;20262;-67
2023/04/28 05:22:30;;;;;;;6.55;4.07;;;9.30;95.90;;;;;;4948310;28;20949;-69
2023/04/28 05:24:56;;;;;;;8.35;4.85;;;9.40;96.20;;;;;;4974939;28;20018;-70
2023/04/28 05:27:22;;;;;;;6.90;3.78;;;9.40;96.50;;;;;;4956117;28;20042;-67
2023/04/28 05:29:49;;;;;;;6.35;3.83;;;9.40;96.70;;;;;;4946734;28;20026;-68
2023/04/28 05:32:15;;;;;;;5.47;3.80;;;9.50;96.80;;;;;;4961563;28;20425;-67
2023/04/28 05:34:41;;;;;;;7.05;4.32;;;9.50;97.00;;;;;;4949191;28;20029;-69
2023/04/28 05:37:08;;;;;;;5.78;4.10;;;9.60;97.30;;;;;;4935026;28;20511;-67
2023/04/28 05:39:37;;;;;;;8.00;4.40;;;9.60;97.60;;;;;;4932580;28;20045;-69
2023/04/28 05:42:05;;;;;;;6.13;4.40;;;9.60;97.80;;;;;;4935149;28;20042;-68
2023/04/28 05:44:32;;;;;;;5.05;3.35;;;9.60;98.10;;;;;;4942935;28;20030;-69
2023/04/28 05:46:59;;;;;;;4.10;3.70;;;9.60;98.20;;;;;;4926536;28;20351;-69
2023/04/28 05:49:27;;;;;;;7.10;3.78;;;9.70;98.50;;;;;;4966051;28;20033;-67
2023/04/28 05:51:53;;;;;;;5.72;3.58;;;9.70;98.70;;;;;;4958758;28;20061;-68
2023/04/28 05:54:19;;;;;;;7.63;3.40;;;9.70;98.90;;;;;;4948807;28;20049;-70
2023/04/28 05:56:48;;;;;;;8.10;4.43;;;9.80;99.20;;;;;;4948371;28;20404;-66
2023/04/28 05:59:15;;;;;;;6.88;4.85;;;9.80;99.40;;;;;;4935539;28;20035;-67
2023/04/28 06:01:41;;;;;;;8.45;5.72;;;9.80;99.70;;;;;;4930651;28;20049;-68
2023/04/28 06:04:08;;;;;;;7.82;5.40;;;9.80;99.90;;;;;;4955181;28;20038;-66
2023/04/28 06:06:35;;;;;;;5.68;4.78;;;9.80;99.90;;;;;;4954026;28;20599;-67
2023/04/28 06:09:03;;;;;;;8.05;5.93;;;9.80;99.90;;;;;;4951175;28;20525;-66
2023/04/28 06:11:30;;;;;;;6.70;4.47;;;9.90;99.90;;;;;;4924960;28;20101;-68
2023/04/28 06:13:56;;;;;;;7.72;5.65;;;10.00;99.90;;;;;;4951155;28;20060;-67
2023/04/28 06:16:24;;;;;;;5.00;4.22;;;10.00;99.90;;;;;;4951970;28;20481;-67
2023/04/28 06:18:52;;;;;;;5.20;4.18;;;10.00;99.90;;;;;;4968359;28;20521;-67
2023/04/28 06:21:20;;;;;;;7.47;4.63;;;10.00;99.90;;;;;;4933442;28;20046;-67
2023/04/28 06:23:46;;;;;;;7.53;6.30;;;10.00;99.90;;;;;;4974942;28;20065;-69
2023/04/28 06:26:13;;;;;;;8.82;6.32;;;9.90;99.90;;;;;;4960895;28;20373;-71
2023/04/28 06:28:39;;;;;;;10.77;5.05;;;9.80;99.90;;;;;;4964450;28;20034;-71
2023/04/28 06:31:08;;;;;;;10.73;6.32;;;9.70;99.90;;;;;;4946131;28;20046;-70
2023/04/28 06:33:34;;;;;;;8.88;7.00;;;9.60;99.90;;;;;;4944157;28;20872;-69
2023/04/28 06:36:00;;;;;;;8.40;6.38;;;9.50;99.90;;;;;;4947925;28;20493;-69
2023/04/28 06:38:27;;;;;;;7.50;5.97;;;9.50;99.90;;;;;;4950606;28;20048;-69
2023/04/28 06:40:53;;;;;;;10.40;7.75;;;9.50;99.90;;;;;;4944152;28;20042;-69
2023/04/28 06:43:20;;;;;;;9.00;7.18;;;9.60;99.90;;;;;;4969503;28;20034;-69
2023/04/28 06:45:56;;;;;;;9.23;6.00;;;9.60;99.90;;;;;;4941635;28;20049;-71
2023/04/28 06:48:25;;;;;;;9.90;8.07;;;9.60;99.90;;;;;;4950608;28;20065;-69
2023/04/28 06:50:51;;;;;;;21.73;15.48;;;9.70;99.90;;;;;;4928820;28;22563;-68
2023/04/28 06:53:17;;;;;;;17.63;9.95;;;9.80;99.90;;;;;;4945491;28;20394;-70
2023/04/28 06:55:43;;;;;;;13.93;10.75;;;9.80;99.90;;;;;;4948316;28;20035;-69
2023/04/28 06:58:10;;;;;;;11.70;9.05;;;9.90;99.90;;;;;;4948366;28;20034;-71
2023/04/28 07:00:36;;;;;;;16.15;13.05;;;9.90;99.90;;;;;;4945641;28;20414;-71
2023/04/28 07:03:03;;;;;;;14.50;10.50;;;10.00;99.90;;;;;;4951427;28;21891;-71
2023/04/28 07:05:30;;;;;;;14.35;11.70;;;10.20;99.90;;;;;;4955237;28;20038;-69
2023/04/28 07:07:56;;;;;;;18.42;13.52;;;10.40;99.90;;;;;;4951295;28;20053;-71
2023/04/28 07:10:22;;;;;;;19.05;14.90;;;10.60;99.90;;;;;;4926453;28;20299;-69
2023/04/28 07:12:51;;;;;;;17.70;14.68;;;10.70;99.90;;;;;;4914510;28;20050;-69
2023/04/28 07:15:17;;;;;;;20.80;16.58;;;10.90;99.90;;;;;;4948122;28;20026;-71
2023/04/28 07:17:43;;;;;;;19.33;15.52;;;11.00;99.90;;;;;;4930771;28;20034;-71
2023/04/28 07:20:10;;;;;;;21.15;17.17;;;11.10;99.90;;;;;;4946179;28;21507;-70
2023/04/28 07:22:37;;;;;;;17.23;14.45;;;11.20;99.90;;;;;;4948826;28;20545;-70
2023/04/28 07:25:04;;;;;;;17.80;14.57;;;11.30;99.90;;;;;;4955629;28;20030;-70
2023/04/28 07:27:31;;;;;;;23.20;17.25;;;11.30;99.90;;;;;;4971878;28;20057;-68
2023/04/28 07:29:57;;;;;;;19.33;14.70;;;11.40;99.90;;;;;;4946357;28;20435;-70
2023/04/28 07:32:23;;;;;;;24.15;15.93;;;11.40;99.90;;;;;;4941098;28;20520;-67
2023/04/28 07:34:50;;;;;;;16.40;13.70;;;11.50;99.90;;;;;;4965165;28;20035;-69
2023/04/28 07:37:16;;;;;;;17.45;14.15;;;11.40;99.90;;;;;;4947819;28;20394;-70
2023/04/28 07:39:43;;;;;;;18.85;15.65;;;11.40;99.90;;;;;;4946707;28;20038;-69
2023/04/28 07:42:09;;;;;;;19.42;16.52;;;11.40;99.90;;;;;;4949047;28;20129;-69
2023/04/28 07:44:36;;;;;;;18.40;15.10;;;11.40;99.90;;;;;;4956704;28;20034;-70
2023/04/28 07:47:02;;;;;;;24.73;18.23;;;11.50;99.90;;;;;;4953895;28;20047;-69
2023/04/28 07:49:29;;;;;;;19.27;16.95;;;11.50;99.90;;;;;;4948170;28;20026;-70
2023/04/28 07:51:55;;;;;;;21.75;18.67;;;11.60;99.90;;;;;;4941216;28;20045;-69
2023/04/28 07:54:22;;;;;;;21.13;16.02;;;11.70;99.90;;;;;;4947789;28;21006;-69
2023/04/28 07:56:49;;;;;;;18.77;15.13;;;11.90;99.90;;;;;;4948342;28;20034;-69
2023/04/28 07:59:15;;;;;;;19.05;16.02;;;11.90;99.90;;;;;;4953639;28;20034;-70
2023/04/28 08:01:41;;;;;;;22.30;17.88;;;11.90;99.90;;;;;;4942960;28;20604;-70
2023/04/28 08:04:08;;;;;;;21.98;17.90;;;12.00;99.90;;;;;;4959265;28;20061;-69
2023/04/28 08:06:35;;;;;;;20.17;16.60;;;12.10;99.90;;;;;;4960493;28;20618;-72
2023/04/28 08:09:01;;;;;;;19.27;16.15;;;12.10;99.90;;;;;;4955792;28;20054;-70
2023/04/28 08:11:28;;;;;;;21.70;16.70;;;12.20;99.90;;;;;;4956608;28;20034;-69
2023/04/28 08:13:59;;;;;;;21.40;16.45;;;12.20;99.90;;;;;;4949949;28;20045;-69
2023/04/28 08:16:26;;;;;;;25.65;18.75;;;12.20;99.90;;;;;;4952460;28;20053;-69
2023/04/28 08:18:53;;;;;;;22.73;16.52;;;12.10;99.90;;;;;;4953055;28;20038;-68
2023/04/28 08:21:19;;;;;;;20.15;17.85;;;12.10;99.90;;;;;;4942515;28;20165;-68
2023/04/28 08:23:45;;;;;;;20.85;16.83;;;12.10;99.90;;;;;;4954517;28;20034;-70
2023/04/28 08:26:12;;;;;;;20.08;15.25;;;12.20;99.90;;;;;;4959692;28;20030;-70
2023/04/28 08:28:39;;;;;;;19.77;16.77;;;12.30;99.90;;;;;;4956463;28;20278;-68
2023/04/28 08:31:05;;;;;;;20.33;16.00;;;12.40;99.90;;;;;;4944595;28;20439;-70
2023/04/28 08:33:31;;;;;;;19.65;16.40;;;12.50;99.90;;;;;;4945793;28;20409;-70
2023/04/28 08:35:57;;;;;;;22.90;18.05;;;12.60;99.90;;;;;;4935905;28;20440;-68
2023/04/28 08:38:24;;;;;;;21.10;17.35;;;12.90;99.90;;;;;;4950386;28;20488;-70
2023/04/28 08:40:50;;;;;;;19.58;17.38;;;13.20;99.90;;;;;;4942362;28;20331;-71
2023/04/28 08:43:17;;;;;;;18.75;15.15;;;13.40;99.90;;;;;;4966670;28;20026;-69
2023/04/28 08:45:44;;;;;;;17.75;15.20;;;13.50;99.90;;;;;;4957695;28;20587;-68
2023/04/28 08:48:20;;;;;;;18.33;13.40;;;13.50;99.90;;;;;;4957529;28;20043;-69
2023/04/28 08:50:53;;;;;;;15.93;13.80;;;13.60;99.90;;;;;;4943897;28;20033;-70
2023/04/28 08:53:25;;;;;;;19.80;16.13;;;13.60;99.90;;;;;;4929135;28;20471;-70
2023/04/28 08:55:56;;;;;;;15.68;13.20;;;13.60;99.90;;;;;;4932789;28;20539;-70
2023/04/28 08:58:24;;;;;;;17.75;14.30;;;13.50;99.90;;;;;;4949854;28;20042;-71
2023/04/28 09:00:52;;;;;;;21.52;16.48;;;13.50;99.90;;;;;;4944486;28;20046;-70
2023/04/28 09:03:18;;;;;;;21.75;16.63;;;13.50;99.90;;;;;;4950173;28;20030;-70
2023/04/28 09:05:45;;;;;;;17.08;14.15;;;13.60;99.90;;;;;;4958398;28;20491;-70
2023/04/28 09:08:11;;;;;;;17.75;12.98;;;13.70;99.90;;;;;;4941139;28;20046;-70
2023/04/28 09:10:38;;;;;;;15.93;12.80;;;13.80;99.90;;;;;;4906856;28;1085094;-71
2023/04/28 09:13:04;;;;;;;16.50;13.48;;;13.90;99.90;;;;;;4946161;28;20030;-69
2023/04/28 09:15:36;;;;;;;14.82;12.50;;;13.80;99.90;;;;;;4967179;28;20038;-71
2023/04/28 09:18:07;;;;;;;12.40;10.43;;;13.80;99.90;;;;;;4949487;28;20038;-70
2023/04/28 09:20:35;;;;;;;12.45;10.77;;;13.80;99.90;;;;;;4944656;28;20065;-69
2023/04/28 09:23:19;;;;;;;15.25;11.77;;;13.80;99.90;;;;;;4948598;28;20046;-70
2023/04/28 09:26:06;;;;;;;12.10;10.82;;;13.70;99.90;;;;;;4957655;28;20053;-70
2023/04/28 09:28:34;;;;;;;17.33;15.07;;;13.70;99.90;;;;;;4940061;28;20042;-72
2023/04/28 09:31:01;;;;;;;14.00;11.60;;;13.60;99.90;;;;;;4945652;28;20341;-71
2023/04/28 09:33:27;;;;;;;14.30;11.95;;;13.70;99.90;;;;;;4946749;28;20046;-71
2023/04/28 09:35:54;;;;;;;15.85;10.13;;;13.70;99.90;;;;;;4949775;28;20034;-72
2023/04/28 09:38:21;;;;;;;12.00;10.38;;;13.80;99.90;;;;;;4951595;28;20030;-71
2023/04/28 09:40:57;;;;;;;12.35;10.48;;;13.80;99.90;;;;;;4944673;28;20047;-72
2023/04/28 09:43:28;;;;;;;16.83;11.80;;;13.90;99.90;;;;;;4933693;28;20101;-72
2023/04/28 09:45:56;;;;;;;15.75;12.25;;;13.90;99.90;;;;;;4956889;28;20030;-70
2023/04/28 09:48:31;;;;;;;15.10;11.98;;;13.90;99.90;;;;;;4974091;28;20073;-73
2023/04/28 09:51:02;;;;;;;12.80;11.50;;;13.90;99.90;;;;;;4946099;28;20034;-73
2023/04/28 09:53:29;;;;;;;16.90;12.93;;;13.90;99.90;;;;;;4945634;28;20034;-75
2023/04/28 09:55:58;;;;;;;20.27;14.90;;;13.90;99.90;;;;;;4966659;28;20034;-74
2023/04/28 09:58:26;;;;;;;16.52;12.43;;;14.00;99.90;;;;;;4951060;28;20035;-75
2023/04/28 10:00:57;;;;;;;12.73;10.88;;;14.00;99.90;;;;;;4943242;28;20327;-75
2023/04/28 10:03:26;;;;;;;11.13;9.45;;;14.00;99.90;;;;;;4946767;28;20042;-71
2023/04/28 10:05:53;;;;;;;12.82;10.30;;;14.00;99.90;;;;;;4958465;28;20480;-74
2023/04/28 10:08:21;;;;;;;14.13;11.25;;;13.90;99.90;;;;;;4957837;28;20046;-70
2023/04/28 10:10:49;;;;;;;11.43;10.07;;;13.90;99.90;;;;;;4949985;28;20054;-70
2023/04/28 10:13:16;;;;;;;12.95;9.75;;;13.90;99.90;;;;;;4962204;28;20041;-71
2023/04/28 10:15:43;;;;;;;11.48;10.23;;;14.00;99.90;;;;;;4949623;28;20037;-72
2023/04/28 10:18:11;;;;;;;14.43;11.48;;;14.00;99.90;;;;;;4952655;28;20050;-71
2023/04/28 10:20:38;;;;;;;12.32;10.95;;;14.10;99.90;;;;;;4958705;28;20049;-72
2023/04/28 10:23:36;;;;;;;11.27;10.07;;;14.20;99.90;;;;;;4948927;28;20049;-72
2023/04/28 10:26:09;;;;;;;11.95;9.13;;;14.20;99.90;;;;;;4963601;28;20112;-71
2023/04/28 10:28:35;;;;;;;10.90;9.57;;;14.20;99.90;;;;;;4948180;28;20042;-72
2023/04/28 10:31:09;;;;;;;12.13;9.73;;;14.30;99.90;;;;;;4944372;28;20057;-70
2023/04/28 10:33:37;;;;;;;10.25;8.98;;;14.30;99.90;;;;;;4953675;28;20034;-71
2023/04/28 10:36:05;;;;;;;11.05;9.95;;;14.40;99.90;;;;;;4957220;28;20030;-73
2023/04/28 10:38:32;;;;;;;12.88;10.73;;;14.50;99.90;;;;;;4951057;28;20050;-72
2023/04/28 10:41:01;;;;;;;12.02;10.77;;;14.40;99.90;;;;;;4942927;28;20050;-72
2023/04/28 10:43:39;;;;;;;10.35;8.80;;;14.40;99.90;;;;;;4962490;28;20034;-72
2023/04/28 10:46:07;;;;;;;14.90;12.25;;;14.40;99.90;;;;;;4946634;28;20538;-72
2023/04/28 10:48:36;;;;;;;9.07;8.18;;;14.50;99.90;;;;;;4948726;28;20034;-70
2023/04/28 10:51:02;;;;;;;13.98;12.20;;;14.40;99.90;;;;;;4948234;28;20045;-71
2023/04/28 10:53:44;;;;;;;10.93;9.82;;;14.50;99.90;;;;;;4952668;28;20460;-70
2023/04/28 10:56:11;;;;;;;15.40;13.90;;;14.50;99.90;;;;;;4955040;28;20057;-72
2023/04/28 10:58:40;;;;;;;13.70;11.50;;;14.60;99.90;;;;;;4946325;28;20474;-74
2023/04/28 11:01:25;;;;;;;11.50;10.27;;;14.60;99.90;;;;;;4943547;28;20038;-72
2023/04/28 11:04:06;;;;;;;13.00;11.68;;;14.60;99.90;;;;;;4946764;28;20058;-73
2023/04/28 11:06:38;;;;;;;16.35;14.52;;;14.60;99.90;;;;;;4932282;28;20458;-74
2023/04/28 11:09:13;;;;;;;18.40;15.95;;;14.60;99.90;;;;;;4946853;28;20485;-75
2023/04/28 11:11:58;;;;;;;15.90;14.27;;;14.70;99.90;;;;;;4946139;28;20508;-76
2023/04/28 11:14:25;;;;;;;15.95;14.30;;;14.80;99.90;;;;;;4928447;28;20512;-74
2023/04/28 11:16:58;;;;;;;14.80;13.23;;;14.80;99.90;;;;;;4954615;28;20590;-74
2023/04/28 11:19:27;;;;;;;11.98;10.88;;;14.90;99.90;;;;;;4947810;28;20034;-71
2023/04/28 11:21:56;;;;;;;11.10;10.10;;;14.90;99.90;;;;;;4941239;28;20037;-75
2023/04/28 11:24:26;;;;;;;12.05;10.98;;;15.00;99.90;;;;;;4947460;28;20591;-75
2023/04/28 11:26:52;;;;;;;13.00;11.88;;;15.00;99.90;;;;;;4949354;28;20745;-78
2023/04/28 11:29:30;;;;;;;10.45;9.45;;;15.10;99.90;;;;;;4945707;28;20496;-74
2023/04/28 11:31:57;;;;;;;9.13;8.23;;;15.10;99.90;;;;;;4938875;28;20034;-76
2023/04/28 11:34:24;;;;;;;12.90;11.70;;;15.10;99.90;;;;;;4955273;28;20043;-74
2023/04/28 11:36:50;;;;;;;9.93;8.93;;;15.20;99.90;;;;;;4972253;28;20497;-78
2023/04/28 11:39:31;;;;;;;10.07;9.18;;;15.40;99.90;;;;;;4951647;28;20034;-71
2023/04/28 11:41:59;;;;;;;7.80;7.10;;;15.50;99.90;;;;;;4938826;28;20038;-73
2023/04/28 11:44:27;;;;;;;6.28;5.78;;;15.50;99.90;;;;;;4944259;28;20068;-72
2023/04/28 11:47:01;;;;;;;4.95;4.55;;;15.50;99.90;;;;;;4947994;28;20402;-71
2023/04/28 11:49:44;;;;;;;5.63;5.22;;;15.40;99.90;;;;;;4946780;28;20050;-73
2023/04/28 11:52:11;;;;;;;6.72;6.15;;;15.30;99.90;;;;;;4940964;28;20034;-74
2023/04/28 11:54:38;;;;;;;5.70;5.20;;;15.20;99.90;;;;;;4953023;28;20501;-74
2023/04/28 11:57:05;;;;;;;5.35;4.90;;;15.10;99.90;;;;;;4955759;28;20039;-72
2023/04/28 11:59:34;;;;;;;9.18;8.35;;;15.00;99.90;;;;;;4967917;28;20035;-73
2023/04/28 12:02:05;;;;;;;7.20;6.60;;;15.00;99.90;;;;;;4937439;28;20050;-71
2023/04/28 12:04:39;;;;;;;8.60;7.85;;;15.00;99.90;;;;;;4946118;28;20034;-72
2023/04/28 12:07:11;;;;;;;5.88;5.38;;;15.20;99.90;;;;;;4946098;28;20373;-72
2023/04/28 12:09:39;;;;;;;8.77;7.95;;;15.30;99.90;;;;;;4944421;28;20081;-71
2023/04/28 12:12:11;;;;;;;7.78;7.07;;;15.50;99.90;;;;;;4935790;28;20577;-70
2023/04/28 12:14:58;;;;;;;10.75;9.65;;;15.60;99.90;;;;;;4950224;28;20045;-72
2023/04/28 12:17:34;;;;;;;13.18;11.80;;;15.60;99.90;;;;;;4953937;28;20038;-72
2023/04/28 12:20:03;;;;;;;10.25;9.30;;;15.60;99.90;;;;;;4949239;28;20042;-71
2023/04/28 12:22:41;;;;;;;8.13;7.43;;;15.50;99.90;;;;;;4945452;28;20038;-73
2023/04/28 12:25:10;;;;;;;11.98;10.75;;;15.40;99.90;;;;;;4946798;28;20053;-70
2023/04/28 12:27:40;;;;;;;11.32;10.23;;;15.40;99.90;;;;;;4945908;28;20038;-69
2023/04/28 12:30:07;;;;;;;10.32;9.32;;;15.30;99.90;;;;;;4941588;28;20066;-71
2023/04/28 12:32:42;;;;;;;14.82;13.32;;;15.30;99.90;;;;;;4939529;28;20818;-74
2023/04/28 12:35:08;;;;;;;12.80;11.57;;;15.30;99.90;;;;;;4936330;28;20038;-73
2023/04/28 12:37:37;;;;;;;9.40;8.40;;;15.20;99.90;;;;;;4954340;28;20037;-73
2023/04/28 12:40:07;;;;;;;10.57;9.57;;;15.10;99.90;;;;;;4944072;28;20045;-69
2023/04/28 12:42:34;;;;;;;11.60;10.50;;;15.10;99.90;;;;;;4940914;28;20393;-71
2023/04/28 12:45:00;;;;;;;11.52;10.32;;;15.10;99.90;;;;;;4965492;28;20134;-72
2023/04/28 12:47:27;;;;;;;10.80;9.70;;;15.00;99.90;;;;;;4950649;28;20035;-71
2023/04/28 12:49:53;;;;;;;11.90;10.70;;;15.10;99.90;;;;;;4947227;28;20042;-70